sensor_id;sensor_type;location;lat;lon;timestamp;pressure;altitude;pressure_sealevel;temperature;humidity
38612;BME280;24368;52.156;20.788;2022-11-20T00:02:45;100355.13;;;-5.02;92.31
38612;BME280;24368;52.156;20.788;2022-11-20T00:07:48;100355.19;;;-5.04;92.89
38612;BME280;24368;52.156;20.788;2022-11-20T00:12:51;100363.35;;;-5.06;93.06
38612;BME280;24368;52.156;20.788;2022-11-20T00:17:54;100365.84;;;-5.13;93.34
38612;BME280;24368;52.156;20.788;2022-11-20T00:22:57;100367.40;;;-5.19;93.29
38612;BME280;24368;52.156;20.788;2022-11-20T00:28:01;100362.71;;;-5.17;93.84
38612;BME280;24368;52.156;20.788;2022-11-20T00:33:03;100357.67;;;-5.15;93.88
38612;BME280;24368;52.156;20.788;2022-11-20T00:38:04;100359.16;;;-5.14;94.36
38612;BME280;24368;52.156;20.788;2022-11-20T00:43:06;100354.48;;;-5.08;94.49
38612;BME280;24368;52.156;20.788;2022-11-20T00:48:08;100348.09;;;-5.02;94.24
38612;BME280;24368;52.156;20.788;2022-11-20T00:53:10;100336.86;;;-4.96;94.36
38612;BME280;24368;52.156;20.788;2022-11-20T00:58:11;100329.82;;;-4.91;94.28
38612;BME280;24368;52.156;20.788;2022-11-20T01:03:13;100327.98;;;-4.88;94.29
38612;BME280;24368;52.156;20.788;2022-11-20T01:08:15;100321.96;;;-4.87;94.40
38612;BME280;24368;52.156;20.788;2022-11-20T01:13:17;100315.83;;;-4.85;94.18
38612;BME280;24368;52.156;20.788;2022-11-20T01:18:40;100310.94;;;-4.82;94.47
38612;BME280;24368;52.156;20.788;2022-11-20T01:23:43;100313.25;;;-4.80;94.11
38612;BME280;24368;52.156;20.788;2022-11-20T01:28:45;100307.62;;;-4.81;94.13
38612;BME280;24368;52.156;20.788;2022-11-20T01:33:50;100304.61;;;-4.79;94.00
38612;BME280;24368;52.156;20.788;2022-11-20T01:38:54;100298.88;;;-4.73;93.72
38612;BME280;24368;52.156;20.788;2022-11-20T01:43:57;100294.04;;;-4.72;93.19
38612;BME280;24368;52.156;20.788;2022-11-20T01:49:03;100300.40;;;-4.72;93.23
38612;BME280;24368;52.156;20.788;2022-11-20T01:54:11;100313.11;;;-4.67;92.82
38612;BME280;24368;52.156;20.788;2022-11-20T01:59:17;100310.00;;;-4.67;92.75
38612;BME280;24368;52.156;20.788;2022-11-20T02:04:20;100313.70;;;-4.69;93.07
38612;BME280;24368;52.156;20.788;2022-11-20T02:09:22;100316.13;;;-4.70;93.63
38612;BME280;24368;52.156;20.788;2022-11-20T02:14:24;100314.52;;;-4.68;93.19
38612;BME280;24368;52.156;20.788;2022-11-20T02:19:30;100310.25;;;-4.64;93.26
38612;BME280;24368;52.156;20.788;2022-11-20T02:24:32;100313.14;;;-4.59;93.15
38612;BME280;24368;52.156;20.788;2022-11-20T02:29:52;100305.69;;;-4.53;92.89
38612;BME280;24368;52.156;20.788;2022-11-20T02:34:55;100303.91;;;-4.56;93.31
38612;BME280;24368;52.156;20.788;2022-11-20T02:39:58;100303.83;;;-4.58;93.76
38612;BME280;24368;52.156;20.788;2022-11-20T02:45:00;100297.16;;;-4.59;94.40
38612;BME280;24368;52.156;20.788;2022-11-20T02:50:03;100296.52;;;-4.65;94.73
38612;BME280;24368;52.156;20.788;2022-11-20T02:55:06;100294.34;;;-4.66;95.30
38612;BME280;24368;52.156;20.788;2022-11-20T03:00:09;100295.02;;;-4.65;95.10
38612;BME280;24368;52.156;20.788;2022-11-20T03:05:11;100289.94;;;-4.68;95.04
38612;BME280;24368;52.156;20.788;2022-11-20T03:10:13;100291.53;;;-4.70;95.41
38612;BME280;24368;52.156;20.788;2022-11-20T03:15:15;100287.75;;;-4.70;96.13
38612;BME280;24368;52.156;20.788;2022-11-20T03:20:17;100282.55;;;-4.73;96.50
38612;BME280;24368;52.156;20.788;2022-11-20T03:25:19;100280.68;;;-4.78;96.60
38612;BME280;24368;52.156;20.788;2022-11-20T03:30:21;100276.03;;;-4.82;97.30
38612;BME280;24368;52.156;20.788;2022-11-20T03:35:22;100270.66;;;-4.85;97.53
38612;BME280;24368;52.156;20.788;2022-11-20T03:40:24;100273.14;;;-4.83;97.44
38612;BME280;24368;52.156;20.788;2022-11-20T03:45:26;100271.36;;;-4.73;97.53
38612;BME280;24368;52.156;20.788;2022-11-20T03:50:27;100272.30;;;-4.65;97.45
38612;BME280;24368;52.156;20.788;2022-11-20T03:55:29;100272.83;;;-4.79;96.99
38612;BME280;24368;52.156;20.788;2022-11-20T04:00:31;100274.88;;;-4.92;97.70
38612;BME280;24368;52.156;20.788;2022-11-20T04:05:34;100282.09;;;-5.06;98.55
38612;BME280;24368;52.156;20.788;2022-11-20T04:10:35;100284.29;;;-5.19;98.82
38612;BME280;24368;52.156;20.788;2022-11-20T04:15:37;100284.82;;;-5.34;99.74
38612;BME280;24368;52.156;20.788;2022-11-20T04:20:39;100290.27;;;-5.42;100.00
38612;BME280;24368;52.156;20.788;2022-11-20T04:25:41;100296.10;;;-5.46;100.00
38612;BME280;24368;52.156;20.788;2022-11-20T04:30:43;100287.79;;;-5.54;100.00
38612;BME280;24368;52.156;20.788;2022-11-20T04:35:46;100288.52;;;-5.60;100.00
38612;BME280;24368;52.156;20.788;2022-11-20T04:40:49;100282.55;;;-5.67;100.00
38612;BME280;24368;52.156;20.788;2022-11-20T04:45:52;100285.58;;;-5.64;100.00
38612;BME280;24368;52.156;20.788;2022-11-20T04:50:54;100281.97;;;-5.69;100.00
38612;BME280;24368;52.156;20.788;2022-11-20T04:56:00;100278.94;;;-5.71;100.00
38612;BME280;24368;52.156;20.788;2022-11-20T05:01:14;100274.36;;;-5.78;100.00
38612;BME280;24368;52.156;20.788;2022-11-20T05:06:18;100269.23;;;-5.88;100.00
38612;BME280;24368;52.156;20.788;2022-11-20T05:11:21;100263.95;;;-5.89;100.00
38612;BME280;24368;52.156;20.788;2022-11-20T05:16:23;100259.34;;;-5.90;100.00
38612;BME280;24368;52.156;20.788;2022-11-20T05:21:25;100262.04;;;-5.93;100.00
38612;BME280;24368;52.156;20.788;2022-11-20T05:26:27;100258.51;;;-5.95;100.00
38612;BME280;24368;52.156;20.788;2022-11-20T05:31:29;100256.79;;;-6.00;100.00
38612;BME280;24368;52.156;20.788;2022-11-20T05:36:31;100254.84;;;-5.98;100.00
38612;BME280;24368;52.156;20.788;2022-11-20T05:41:33;100253.91;;;-6.01;100.00
38612;BME280;24368;52.156;20.788;2022-11-20T05:46:35;100248.35;;;-6.04;100.00
38612;BME280;24368;52.156;20.788;2022-11-20T05:51:37;100248.45;;;-5.97;100.00
38612;BME280;24368;52.156;20.788;2022-11-20T05:56:38;100243.69;;;-5.93;100.00
38612;BME280;24368;52.156;20.788;2022-11-20T06:01:40;100235.67;;;-5.80;100.00
38612;BME280;24368;52.156;20.788;2022-11-20T06:06:43;100232.30;;;-5.77;100.00
38612;BME280;24368;52.156;20.788;2022-11-20T06:11:46;100229.77;;;-5.78;100.00
38612;BME280;24368;52.156;20.788;2022-11-20T06:16:51;100227.05;;;-5.84;100.00
38612;BME280;24368;52.156;20.788;2022-11-20T06:21:54;100234.71;;;-5.92;100.00
38612;BME280;24368;52.156;20.788;2022-11-20T06:26:59;100234.49;;;-6.00;100.00
38612;BME280;24368;52.156;20.788;2022-11-20T06:32:02;100231.12;;;-6.01;100.00
38612;BME280;24368;52.156;20.788;2022-11-20T06:37:04;100228.96;;;-6.03;100.00
38612;BME280;24368;52.156;20.788;2022-11-20T06:42:06;100221.63;;;-6.04;100.00
38612;BME280;24368;52.156;20.788;2022-11-20T06:47:08;100224.83;;;-6.03;100.00
38612;BME280;24368;52.156;20.788;2022-11-20T06:52:10;100229.11;;;-5.98;100.00
38612;BME280;24368;52.156;20.788;2022-11-20T06:57:11;100223.20;;;-5.96;100.00
38612;BME280;24368;52.156;20.788;2022-11-20T07:02:13;100215.20;;;-5.97;100.00
38612;BME280;24368;52.156;20.788;2022-11-20T07:07:15;100210.11;;;-5.94;100.00
38612;BME280;24368;52.156;20.788;2022-11-20T07:12:17;100210.98;;;-5.86;100.00
38612;BME280;24368;52.156;20.788;2022-11-20T07:17:19;100208.88;;;-5.79;100.00
38612;BME280;24368;52.156;20.788;2022-11-20T07:22:21;100206.45;;;-5.69;100.00
38612;BME280;24368;52.156;20.788;2022-11-20T07:27:23;100214.66;;;-5.59;100.00
38612;BME280;24368;52.156;20.788;2022-11-20T07:32:25;100216.38;;;-5.58;100.00
38612;BME280;24368;52.156;20.788;2022-11-20T07:37:28;100221.11;;;-5.61;100.00
38612;BME280;24368;52.156;20.788;2022-11-20T07:42:30;100220.45;;;-5.62;100.00
38612;BME280;24368;52.156;20.788;2022-11-20T07:47:36;100218.84;;;-5.65;100.00
38612;BME280;24368;52.156;20.788;2022-11-20T07:52:38;100213.27;;;-5.53;100.00
38612;BME280;24368;52.156;20.788;2022-11-20T07:57:45;100206.95;;;-5.50;100.00
38612;BME280;24368;52.156;20.788;2022-11-20T08:02:48;100205.02;;;-5.39;100.00
38612;BME280;24368;52.156;20.788;2022-11-20T08:07:49;100206.64;;;-5.28;100.00
38612;BME280;24368;52.156;20.788;2022-11-20T08:12:52;100206.50;;;-5.24;100.00
38612;BME280;24368;52.156;20.788;2022-11-20T08:18:13;100199.04;;;-5.03;100.00
38612;BME280;24368;52.156;20.788;2022-11-20T08:23:15;100192.97;;;-4.68;100.00
38612;BME280;24368;52.156;20.788;2022-11-20T08:28:17;100189.36;;;-4.42;100.00
38612;BME280;24368;52.156;20.788;2022-11-20T08:33:19;100193.16;;;-4.26;99.87
38612;BME280;24368;52.156;20.788;2022-11-20T08:38:21;100189.37;;;-4.10;99.26
38612;BME280;24368;52.156;20.788;2022-11-20T08:43:22;100172.66;;;-3.97;99.36
38612;BME280;24368;52.156;20.788;2022-11-20T08:48:24;100169.00;;;-3.84;98.55
38612;BME280;24368;52.156;20.788;2022-11-20T08:53:27;100162.17;;;-3.86;98.19
38612;BME280;24368;52.156;20.788;2022-11-20T08:58:29;100148.46;;;-3.87;98.82
38612;BME280;24368;52.156;20.788;2022-11-20T09:03:31;100146.03;;;-3.83;98.99
38612;BME280;24368;52.156;20.788;2022-11-20T09:08:34;100140.95;;;-3.77;98.13
38612;BME280;24368;52.156;20.788;2022-11-20T09:13:37;100140.65;;;-3.74;97.87
38612;BME280;24368;52.156;20.788;2022-11-20T09:18:40;100141.86;;;-3.58;97.67
38612;BME280;24368;52.156;20.788;2022-11-20T09:23:42;100142.46;;;-3.46;96.70
38612;BME280;24368;52.156;20.788;2022-11-20T09:28:44;100135.92;;;-3.34;96.43
38612;BME280;24368;52.156;20.788;2022-11-20T09:33:45;100132.66;;;-3.13;95.91
38612;BME280;24368;52.156;20.788;2022-11-20T09:38:48;100134.58;;;-3.06;95.37
38612;BME280;24368;52.156;20.788;2022-11-20T09:43:58;100128.96;;;-2.86;95.37
38612;BME280;24368;52.156;20.788;2022-11-20T09:54:42;100122.11;;;-2.62;94.06
38612;BME280;24368;52.156;20.788;2022-11-20T09:59:56;100119.95;;;-2.57;93.54
38612;BME280;24368;52.156;20.788;2022-11-20T10:10:29;100111.88;;;-2.31;92.92
38612;BME280;24368;52.156;20.788;2022-11-20T10:20:48;100114.45;;;-2.06;91.70
38612;BME280;24368;52.156;20.788;2022-11-20T10:26:17;100109.23;;;-1.93;90.72
38612;BME280;24368;52.156;20.788;2022-11-20T10:31:37;100107.14;;;-1.73;90.78
38612;BME280;24368;52.156;20.788;2022-11-20T10:36:51;100099.52;;;-1.41;89.63
38612;BME280;24368;52.156;20.788;2022-11-20T10:41:54;100094.48;;;-1.06;88.52
38612;BME280;24368;52.156;20.788;2022-11-20T10:46:58;100087.92;;;-0.76;87.26
38612;BME280;24368;52.156;20.788;2022-11-20T10:52:13;100087.66;;;-0.30;85.37
38612;BME280;24368;52.156;20.788;2022-11-20T11:02:52;100073.88;;;6.13;62.73
38612;BME280;24368;52.156;20.788;2022-11-20T11:07:55;100062.86;;;9.14;50.57
38612;BME280;24368;52.156;20.788;2022-11-20T11:12:58;100057.80;;;9.97;47.70
38612;BME280;24368;52.156;20.788;2022-11-20T11:18:01;100061.65;;;10.80;44.37
38612;BME280;24368;52.156;20.788;2022-11-20T11:23:03;100058.54;;;11.09;43.57
38612;BME280;24368;52.156;20.788;2022-11-20T11:28:35;100054.95;;;10.72;42.82
38612;BME280;24368;52.156;20.788;2022-11-20T11:33:37;100053.02;;;10.65;42.84
38612;BME280;24368;52.156;20.788;2022-11-20T11:38:41;100049.03;;;10.68;42.23
38612;BME280;24368;52.156;20.788;2022-11-20T11:43:53;100047.58;;;8.46;46.26
38612;BME280;24368;52.156;20.788;2022-11-20T11:49:18;100041.45;;;6.63;51.51
38612;BME280;24368;52.156;20.788;2022-11-20T11:54:43;100029.50;;;7.05;51.10
38612;BME280;24368;52.156;20.788;2022-11-20T12:00:02;100029.90;;;7.24;50.32
38612;BME280;24368;52.156;20.788;2022-11-20T12:05:26;100026.95;;;8.13;48.81
38612;BME280;24368;52.156;20.788;2022-11-20T12:15:33;100015.59;;;7.66;49.63
38612;BME280;24368;52.156;20.788;2022-11-20T12:20:44;100020.72;;;6.04;53.73
38612;BME280;24368;52.156;20.788;2022-11-20T12:25:48;100015.00;;;4.38;58.62
38612;BME280;24368;52.156;20.788;2022-11-20T12:31:07;100011.94;;;3.04;63.85
38612;BME280;24368;52.156;20.788;2022-11-20T12:36:31;100010.22;;;2.06;67.63
38612;BME280;24368;52.156;20.788;2022-11-20T12:47:23;99993.76;;;2.12;68.49
38612;BME280;24368;52.156;20.788;2022-11-20T12:57:57;99975.36;;;4.42;62.43
38612;BME280;24368;52.156;20.788;2022-11-20T13:03:26;99972.99;;;3.64;62.82
38612;BME280;24368;52.156;20.788;2022-11-20T13:08:38;99954.20;;;2.97;66.19
38612;BME280;24368;52.156;20.788;2022-11-20T13:19:03;99954.93;;;3.05;66.33
38612;BME280;24368;52.156;20.788;2022-11-20T13:29:24;99955.65;;;1.84;71.07
38612;BME280;24368;52.156;20.788;2022-11-20T13:34:27;99952.98;;;1.60;73.74
38612;BME280;24368;52.156;20.788;2022-11-20T13:39:32;99954.67;;;1.60;73.84
38612;BME280;24368;52.156;20.788;2022-11-20T14:08:16;99927.95;;;0.37;80.35
38612;BME280;24368;52.156;20.788;2022-11-20T14:13:21;99926.20;;;0.13;82.07
38612;BME280;24368;52.156;20.788;2022-11-20T14:18:22;99922.69;;;0.03;82.59
38612;BME280;24368;52.156;20.788;2022-11-20T14:23:27;99924.03;;;-0.07;83.21
38612;BME280;24368;52.156;20.788;2022-11-20T14:28:30;99926.59;;;-0.12;83.77
38612;BME280;24368;52.156;20.788;2022-11-20T14:33:33;99917.36;;;-0.22;84.35
38612;BME280;24368;52.156;20.788;2022-11-20T14:38:34;99908.33;;;-0.28;85.11
38612;BME280;24368;52.156;20.788;2022-11-20T14:43:36;99907.39;;;-0.37;85.44
38612;BME280;24368;52.156;20.788;2022-11-20T14:48:45;99905.45;;;-0.42;86.31
38612;BME280;24368;52.156;20.788;2022-11-20T14:53:47;99900.14;;;-0.46;86.95
38612;BME280;24368;52.156;20.788;2022-11-20T14:58:56;99897.14;;;-0.50;87.38
38612;BME280;24368;52.156;20.788;2022-11-20T15:04:11;99895.92;;;-0.59;87.65
38612;BME280;24368;52.156;20.788;2022-11-20T15:09:14;99892.48;;;-0.62;88.61
38612;BME280;24368;52.156;20.788;2022-11-20T15:14:16;99888.73;;;-0.69;88.47
38612;BME280;24368;52.156;20.788;2022-11-20T15:19:20;99898.45;;;-0.75;89.38
38612;BME280;24368;52.156;20.788;2022-11-20T15:24:21;99902.08;;;-0.83;89.77
38612;BME280;24368;52.156;20.788;2022-11-20T15:29:23;99906.99;;;-0.96;91.42
38612;BME280;24368;52.156;20.788;2022-11-20T15:34:26;99903.45;;;-1.09;93.28
38612;BME280;24368;52.156;20.788;2022-11-20T15:39:28;99897.20;;;-1.20;95.96
38612;BME280;24368;52.156;20.788;2022-11-20T15:44:29;99895.42;;;-1.32;97.78
38612;BME280;24368;52.156;20.788;2022-11-20T15:49:30;99893.33;;;-1.40;99.03
38612;BME280;24368;52.156;20.788;2022-11-20T15:54:31;99892.17;;;-1.50;99.96
38612;BME280;24368;52.156;20.788;2022-11-20T15:59:33;99881.45;;;-1.52;100.00
38612;BME280;24368;52.156;20.788;2022-11-20T16:04:35;99865.98;;;-1.65;100.00
38612;BME280;24368;52.156;20.788;2022-11-20T16:09:36;99870.63;;;-1.78;100.00
38612;BME280;24368;52.156;20.788;2022-11-20T16:14:37;99874.52;;;-1.88;100.00
38612;BME280;24368;52.156;20.788;2022-11-20T16:19:57;99875.53;;;-1.97;100.00
38612;BME280;24368;52.156;20.788;2022-11-20T16:24:58;99876.06;;;-2.06;100.00
38612;BME280;24368;52.156;20.788;2022-11-20T16:29:59;99876.27;;;-2.10;100.00
38612;BME280;24368;52.156;20.788;2022-11-20T16:35:00;99879.64;;;-2.14;100.00
38612;BME280;24368;52.156;20.788;2022-11-20T16:40:01;99886.14;;;-2.20;100.00
38612;BME280;24368;52.156;20.788;2022-11-20T16:45:03;99884.52;;;-2.15;100.00
38612;BME280;24368;52.156;20.788;2022-11-20T16:50:06;99876.25;;;-2.26;100.00
38612;BME280;24368;52.156;20.788;2022-11-20T16:55:08;99878.31;;;-2.38;100.00
38612;BME280;24368;52.156;20.788;2022-11-20T17:00:09;99879.05;;;-2.42;100.00
38612;BME280;24368;52.156;20.788;2022-11-20T17:05:10;99874.90;;;-2.48;100.00
38612;BME280;24368;52.156;20.788;2022-11-20T17:10:12;99874.91;;;-2.45;100.00
38612;BME280;24368;52.156;20.788;2022-11-20T17:15:13;99876.99;;;-2.45;100.00
38612;BME280;24368;52.156;20.788;2022-11-20T17:20:14;99872.91;;;-2.46;100.00
38612;BME280;24368;52.156;20.788;2022-11-20T17:25:16;99873.23;;;-2.46;100.00
38612;BME280;24368;52.156;20.788;2022-11-20T17:30:17;99871.52;;;-2.62;100.00
38612;BME280;24368;52.156;20.788;2022-11-20T17:35:18;99866.26;;;-2.66;100.00
38612;BME280;24368;52.156;20.788;2022-11-20T17:40:20;99860.01;;;-2.73;100.00
38612;BME280;24368;52.156;20.788;2022-11-20T17:45:21;99847.48;;;-2.80;100.00
38612;BME280;24368;52.156;20.788;2022-11-20T17:50:22;99841.61;;;-2.90;100.00
38612;BME280;24368;52.156;20.788;2022-11-20T17:55:24;99834.00;;;-2.92;100.00
38612;BME280;24368;52.156;20.788;2022-11-20T18:00:25;99828.21;;;-2.94;100.00
38612;BME280;24368;52.156;20.788;2022-11-20T18:05:27;99828.10;;;-3.01;100.00
38612;BME280;24368;52.156;20.788;2022-11-20T18:10:29;99830.41;;;-2.99;100.00
38612;BME280;24368;52.156;20.788;2022-11-20T18:15:33;99821.27;;;-2.99;100.00
38612;BME280;24368;52.156;20.788;2022-11-20T18:20:34;99811.17;;;-2.97;100.00
38612;BME280;24368;52.156;20.788;2022-11-20T18:25:36;99803.10;;;-2.94;100.00
38612;BME280;24368;52.156;20.788;2022-11-20T18:30:37;99805.62;;;-2.93;100.00
38612;BME280;24368;52.156;20.788;2022-11-20T18:35:38;99807.73;;;-2.88;100.00
38612;BME280;24368;52.156;20.788;2022-11-20T18:40:43;99809.69;;;-2.95;100.00
38612;BME280;24368;52.156;20.788;2022-11-20T18:45:49;99811.58;;;-2.98;100.00
38612;BME280;24368;52.156;20.788;2022-11-20T18:50:52;99816.50;;;-3.10;100.00
38612;BME280;24368;52.156;20.788;2022-11-20T18:55:53;99812.94;;;-3.14;100.00
38612;BME280;24368;52.156;20.788;2022-11-20T19:00:54;99807.13;;;-3.22;100.00
38612;BME280;24368;52.156;20.788;2022-11-20T19:05:55;99800.11;;;-3.29;100.00
38612;BME280;24368;52.156;20.788;2022-11-20T19:11:08;99792.11;;;-3.31;100.00
38612;BME280;24368;52.156;20.788;2022-11-20T19:16:16;99780.83;;;-3.39;100.00
38612;BME280;24368;52.156;20.788;2022-11-20T19:21:20;99769.82;;;-3.40;100.00
38612;BME280;24368;52.156;20.788;2022-11-20T19:26:22;99761.31;;;-3.42;100.00
38612;BME280;24368;52.156;20.788;2022-11-20T19:31:24;99753.79;;;-3.42;100.00
38612;BME280;24368;52.156;20.788;2022-11-20T19:36:40;99752.25;;;-3.43;100.00
38612;BME280;24368;52.156;20.788;2022-11-20T19:41:42;99753.31;;;-3.47;100.00
38612;BME280;24368;52.156;20.788;2022-11-20T19:46:47;99747.64;;;-3.37;100.00
38612;BME280;24368;52.156;20.788;2022-11-20T19:51:48;99745.34;;;-3.39;100.00
38612;BME280;24368;52.156;20.788;2022-11-20T19:56:51;99746.92;;;-3.43;100.00
38612;BME280;24368;52.156;20.788;2022-11-20T20:01:52;99745.61;;;-3.44;100.00
38612;BME280;24368;52.156;20.788;2022-11-20T20:06:54;99740.89;;;-3.43;100.00
38612;BME280;24368;52.156;20.788;2022-11-20T20:11:56;99738.34;;;-3.40;100.00
38612;BME280;24368;52.156;20.788;2022-11-20T20:16:57;99742.29;;;-3.40;100.00
38612;BME280;24368;52.156;20.788;2022-11-20T20:21:58;99745.44;;;-3.38;100.00
38612;BME280;24368;52.156;20.788;2022-11-20T20:27:01;99746.98;;;-3.34;100.00
38612;BME280;24368;52.156;20.788;2022-11-20T20:32:02;99746.90;;;-3.27;100.00
38612;BME280;24368;52.156;20.788;2022-11-20T20:37:05;99743.50;;;-3.27;100.00
38612;BME280;24368;52.156;20.788;2022-11-20T20:42:08;99741.95;;;-3.20;100.00
38612;BME280;24368;52.156;20.788;2022-11-20T20:47:09;99742.13;;;-3.24;100.00
38612;BME280;24368;52.156;20.788;2022-11-20T20:52:10;99732.06;;;-3.19;100.00
38612;BME280;24368;52.156;20.788;2022-11-20T20:57:12;99727.29;;;-3.11;100.00
38612;BME280;24368;52.156;20.788;2022-11-20T21:02:13;99734.39;;;-3.05;100.00
38612;BME280;24368;52.156;20.788;2022-11-20T21:07:15;99729.02;;;-3.04;100.00
38612;BME280;24368;52.156;20.788;2022-11-20T21:12:16;99730.77;;;-3.02;100.00
38612;BME280;24368;52.156;20.788;2022-11-20T21:17:18;99726.63;;;-3.08;100.00
38612;BME280;24368;52.156;20.788;2022-11-20T21:22:19;99721.20;;;-3.22;100.00
38612;BME280;24368;52.156;20.788;2022-11-20T21:27:20;99721.39;;;-3.29;100.00
38612;BME280;24368;52.156;20.788;2022-11-20T21:32:21;99720.59;;;-3.37;100.00
38612;BME280;24368;52.156;20.788;2022-11-20T21:37:22;99722.80;;;-3.39;100.00
38612;BME280;24368;52.156;20.788;2022-11-20T21:42:23;99728.28;;;-3.42;100.00
38612;BME280;24368;52.156;20.788;2022-11-20T21:47:24;99728.99;;;-3.39;100.00
38612;BME280;24368;52.156;20.788;2022-11-20T21:52:26;99732.79;;;-3.43;100.00
38612;BME280;24368;52.156;20.788;2022-11-20T21:57:27;99729.36;;;-3.43;100.00
38612;BME280;24368;52.156;20.788;2022-11-20T22:02:28;99732.46;;;-3.40;100.00
38612;BME280;24368;52.156;20.788;2022-11-20T22:07:29;99728.92;;;-3.35;100.00
38612;BME280;24368;52.156;20.788;2022-11-20T22:12:31;99734.97;;;-3.38;100.00
38612;BME280;24368;52.156;20.788;2022-11-20T22:17:32;99737.54;;;-3.41;100.00
38612;BME280;24368;52.156;20.788;2022-11-20T22:22:51;99732.02;;;-3.48;100.00
38612;BME280;24368;52.156;20.788;2022-11-20T22:27:52;99726.36;;;-3.55;100.00
38612;BME280;24368;52.156;20.788;2022-11-20T22:32:53;99726.00;;;-3.64;100.00
38612;BME280;24368;52.156;20.788;2022-11-20T22:37:56;99721.30;;;-3.70;100.00
38612;BME280;24368;52.156;20.788;2022-11-20T22:42:57;99720.11;;;-3.77;100.00
38612;BME280;24368;52.156;20.788;2022-11-20T22:47:59;99726.08;;;-3.79;100.00
38612;BME280;24368;52.156;20.788;2022-11-20T22:53:01;99724.91;;;-3.87;100.00
38612;BME280;24368;52.156;20.788;2022-11-20T22:58:04;99725.31;;;-3.88;100.00
38612;BME280;24368;52.156;20.788;2022-11-20T23:03:05;99724.56;;;-3.87;100.00
38612;BME280;24368;52.156;20.788;2022-11-20T23:08:06;99728.26;;;-3.88;100.00
38612;BME280;24368;52.156;20.788;2022-11-20T23:13:07;99728.79;;;-3.95;100.00
38612;BME280;24368;52.156;20.788;2022-11-20T23:18:08;99728.61;;;-4.02;100.00
38612;BME280;24368;52.156;20.788;2022-11-20T23:23:09;99726.13;;;-4.07;100.00
38612;BME280;24368;52.156;20.788;2022-11-20T23:28:10;99734.45;;;-4.12;100.00
38612;BME280;24368;52.156;20.788;2022-11-20T23:33:11;99735.27;;;-4.18;100.00
38612;BME280;24368;52.156;20.788;2022-11-20T23:38:13;99736.80;;;-4.22;100.00
38612;BME280;24368;52.156;20.788;2022-11-20T23:43:15;99739.84;;;-4.24;100.00
38612;BME280;24368;52.156;20.788;2022-11-20T23:48:17;99739.61;;;-4.19;100.00
38612;BME280;24368;52.156;20.788;2022-11-20T23:53:19;99734.39;;;-4.14;100.00
38612;BME280;24368;52.156;20.788;2022-11-20T23:58:24;99734.75;;;-4.08;100.00
